createdAt,value
2022-09-20T00:01:12.145Z,96649.84
2022-09-20T00:03:42.000Z,96642.06
2022-09-20T00:06:11.130Z,96642.06
2022-09-20T00:08:38.998Z,96638.56
2022-09-20T00:11:10.559Z,96629.84
2022-09-20T00:13:39.910Z,96631.47
2022-09-20T00:16:09.280Z,96634.97
2022-09-20T00:18:37.151Z,96636.34
2022-09-20T00:21:05.364Z,96625.84
2022-09-20T00:23:33.960Z,96639.06
2022-09-20T00:26:03.834Z,96619.66
2022-09-20T00:28:33.631Z,96626.66
2022-09-20T00:31:01.720Z,96615.53
2022-09-20T00:33:49.469Z,96614.84
2022-09-20T00:36:16.660Z,96612.16
2022-09-20T00:38:44.411Z,96608.66
2022-09-20T00:41:12.359Z,96610.03
2022-09-20T00:43:43.791Z,96610.94
2022-09-20T00:46:23.842Z,96604.16
2022-09-20T00:48:53.394Z,96605.34
2022-09-20T00:51:26.495Z,96601.03
2022-09-20T00:53:57.901Z,96600.53
2022-09-20T00:56:28.362Z,96596.63
2022-09-20T00:59:05.669Z,96598.63
2022-09-20T01:01:33.895Z,96594.72
2022-09-20T01:04:02.290Z,96609.00
2022-09-20T01:06:31.621Z,96600.00
2022-09-20T01:09:03.257Z,96597.97
2022-09-20T01:11:31.592Z,96605.56
2022-09-20T01:14:00.991Z,96606.47
2022-09-20T01:16:32.066Z,96606.47
2022-09-20T01:19:03.644Z,96614.94
2022-09-20T01:21:31.934Z,96614.13
2022-09-20T01:24:08.742Z,96609.63
2022-09-20T01:26:57.555Z,96611.00
2022-09-20T01:29:53.926Z,96604.00
2022-09-20T01:32:27.758Z,96599.72
2022-09-20T01:34:58.963Z,96606.47
2022-09-20T01:37:29.419Z,96601.16
2022-09-20T01:40:08.916Z,96600.47
2022-09-20T01:42:39.553Z,96591.06
2022-09-20T01:45:19.122Z,96590.19
2022-09-20T01:47:57.769Z,96592.88
2022-09-20T01:50:35.138Z,96583.19
2022-09-20T01:53:23.459Z,96583.91
2022-09-20T01:56:37.247Z,96587.19
2022-09-20T02:00:05.320Z,96584.50
2022-09-20T02:03:24.688Z,96589.88
2022-09-20T02:06:06.356Z,96580.19
2022-09-20T02:09:01.424Z,96589.97
2022-09-20T02:11:39.000Z,96586.75
2022-09-20T02:14:21.572Z,96587.63
2022-09-20T02:16:55.639Z,96595.22
2022-09-20T02:19:57.181Z,96588.81
2022-09-20T02:22:37.638Z,96587.44
2022-09-20T02:25:15.854Z,96591.72
2022-09-20T02:27:53.912Z,96589.03
2022-09-20T02:30:34.942Z,96588.03
2022-09-20T02:33:15.551Z,96585.81
2022-09-20T02:35:53.011Z,96589.84
2022-09-20T02:38:41.835Z,96593.63
2022-09-20T02:41:42.329Z,96589.13
2022-09-20T02:44:19.531Z,96593.91
2022-09-20T02:46:54.842Z,96593.41
2022-09-20T02:49:30.763Z,96596.41
2022-09-20T02:52:05.819Z,96591.28
2022-09-20T02:54:44.207Z,96588.09
2022-09-20T02:57:19.285Z,96593.03
2022-09-20T02:59:54.018Z,96590.34
2022-09-20T03:02:28.400Z,96592.97
2022-09-20T03:05:10.354Z,96596.50
2022-09-20T03:07:53.666Z,96599.47
2022-09-20T03:10:28.885Z,96599.47
2022-09-20T03:13:09.659Z,96596.50
2022-09-20T03:15:51.951Z,96600.56
2022-09-20T03:18:31.760Z,96598.34
2022-09-20T03:21:08.638Z,96603.75
2022-09-20T03:23:53.056Z,96595.88
2022-09-20T03:26:34.655Z,96601.19
2022-09-20T03:29:06.365Z,96607.91
2022-09-20T03:31:45.718Z,96610.09
2022-09-20T03:34:31.039Z,96604.78
2022-09-20T03:37:14.270Z,96603.75
2022-09-20T03:40:11.745Z,96602.38
2022-09-20T03:42:47.323Z,96601.88
2022-09-20T03:45:46.686Z,96608.34
2022-09-20T03:48:38.212Z,96597.38
2022-09-20T03:51:17.663Z,96603.03
2022-09-20T03:54:05.871Z,96597.28
2022-09-20T03:57:01.830Z,96599.91
2022-09-20T03:59:48.264Z,96595.81
2022-09-20T04:02:41.879Z,96600.13
2022-09-20T04:05:14.896Z,96603.47
2022-09-20T04:07:56.455Z,96595.91
2022-09-20T04:10:34.806Z,96600.72
2022-09-20T04:13:18.601Z,96599.63
2022-09-20T04:16:01.936Z,96605.22
2022-09-20T04:18:35.595Z,96602.00
2022-09-20T04:21:09.565Z,96609.53
2022-09-20T04:23:45.437Z,96601.75
2022-09-20T04:26:16.623Z,96600.34
2022-09-20T04:28:49.870Z,96595.47
2022-09-20T04:31:31.581Z,96601.66
2022-09-20T04:34:02.719Z,96601.13
2022-09-20T04:36:37.798Z,96598.88
2022-09-20T04:39:17.493Z,96606.19
2022-09-20T04:42:30.037Z,96601.06
2022-09-20T04:45:29.078Z,96595.66
2022-09-20T04:48:32.090Z,96602.69
2022-09-20T04:51:43.457Z,96613.53
2022-09-20T04:54:47.727Z,96615.22
2022-09-20T04:57:40.230Z,96614.63
2022-09-20T05:00:10.954Z,96618.41
2022-09-20T05:03:05.260Z,96619.50
2022-09-20T05:05:55.124Z,96620.00
2022-09-20T05:08:58.795Z,96618.09
2022-09-20T05:11:47.125Z,96622.03
2022-09-20T05:14:56.818Z,96626.94
2022-09-20T05:17:39.579Z,96626.66
2022-09-20T05:20:30.187Z,96628.00
2022-09-20T05:23:19.028Z,96631.22
2022-09-20T05:26:21.707Z,96622.78
2022-09-20T05:28:56.905Z,96627.00
2022-09-20T05:31:38.204Z,96632.19
2022-09-20T05:34:17.981Z,96632.59
2022-09-20T05:36:56.198Z,96632.31
2022-09-20T05:39:34.253Z,96632.03
2022-09-20T05:42:16.048Z,96638.50
2022-09-20T05:44:58.836Z,96641.78
2022-09-20T05:47:37.051Z,96642.00
2022-09-20T05:50:25.511Z,96647.31
2022-09-20T05:52:58.558Z,96641.63
2022-09-20T05:55:50.489Z,96653.44
2022-09-20T05:58:34.538Z,96650.25
2022-09-20T06:01:09.418Z,96653.81
2022-09-20T06:03:43.284Z,96658.34
2022-09-20T06:06:15.899Z,96652.34
2022-09-20T06:09:13.340Z,96653.97
2022-09-20T06:11:55.099Z,96649.63
2022-09-20T06:14:36.243Z,96643.88
2022-09-20T06:17:14.880Z,96646.28
2022-09-20T06:19:46.878Z,96651.41
2022-09-20T06:22:20.909Z,96649.41
2022-09-20T06:24:53.029Z,96658.22
2022-09-20T06:27:26.729Z,96652.59
2022-09-20T06:30:01.370Z,96661.50
2022-09-20T06:32:29.125Z,96656.63
2022-09-20T06:34:56.838Z,96659.50
2022-09-20T06:38:02.330Z,96662.75
2022-09-20T06:40:57.018Z,96663.97
2022-09-20T06:43:25.062Z,96665.25
2022-09-20T06:45:54.182Z,96664.38
2022-09-20T06:48:21.967Z,96673.78
2022-09-20T06:50:49.847Z,96672.81
2022-09-20T06:53:19.675Z,96675.44
2022-09-20T06:55:48.415Z,96670.53
2022-09-20T06:58:16.196Z,96674.44
2022-09-20T07:00:44.154Z,96666.66
2022-09-20T07:03:13.649Z,96672.84
2022-09-20T07:05:41.716Z,96678.44
2022-09-20T07:08:09.430Z,96682.56
2022-09-20T07:10:37.225Z,96685.66
2022-09-20T07:13:05.569Z,96686.47
2022-09-20T07:15:34.906Z,96680.38
2022-09-20T07:18:02.587Z,96683.59
2022-09-20T07:20:31.687Z,96694.47
2022-09-20T07:22:59.418Z,96691.19
2022-09-20T07:25:27.438Z,96690.50
2022-09-20T07:27:55.363Z,96699.50
2022-09-20T07:30:23.341Z,96702.13
2022-09-20T07:32:51.256Z,96699.09
2022-09-20T07:35:18.974Z,96694.03
2022-09-20T07:37:48.028Z,96700.25
2022-09-20T07:40:16.384Z,96703.75
2022-09-20T07:42:45.958Z,96704.75
2022-09-20T07:45:13.939Z,96708.34
2022-09-20T07:47:44.793Z,96702.63
2022-09-20T07:50:12.541Z,96707.66
2022-09-20T07:52:40.259Z,96716.56
2022-09-20T07:55:10.134Z,96712.94
2022-09-20T07:57:38.823Z,96714.44
2022-09-20T08:00:09.294Z,96724.88
2022-09-20T08:02:44.986Z,96721.94
2022-09-20T08:05:12.908Z,96716.91
2022-09-20T08:07:40.610Z,96723.31
2022-09-20T08:10:11.134Z,96722.16
2022-09-20T08:15:26.800Z,96728.38
2022-09-20T08:17:54.715Z,96730.38
2022-09-20T08:20:22.401Z,96737.50
2022-09-20T08:23:12.574Z,96730.75
2022-09-20T08:25:39.391Z,96735.34
2022-09-20T08:28:07.093Z,96733.84
2022-09-20T08:30:34.879Z,96739.53
2022-09-20T08:33:05.007Z,96734.25
2022-09-20T08:35:32.726Z,96734.22
2022-09-20T08:39:57.140Z,96737.09
2022-09-20T08:40:50.465Z,96742.91
2022-09-20T08:43:22.252Z,96733.47
2022-09-20T08:45:50.819Z,96737.91
2022-09-20T08:48:19.482Z,96741.97
2022-09-20T08:50:48.696Z,96745.78
2022-09-20T08:53:21.502Z,96742.75
2022-09-20T08:55:50.744Z,96750.94
2022-09-20T08:58:19.205Z,96746.72
2022-09-20T09:00:48.078Z,96757.47
2022-09-20T09:03:18.484Z,96749.28
2022-09-20T09:05:48.184Z,96754.84
2022-09-20T09:08:18.099Z,96756.06
2022-09-20T09:10:47.688Z,96759.53
2022-09-20T09:13:27.459Z,96756.69
2022-09-20T09:15:58.855Z,96751.50
2022-09-20T09:18:35.900Z,96756.38
2022-09-20T09:21:05.305Z,96758.00
2022-09-20T09:23:41.304Z,96755.28
2022-09-20T09:26:17.410Z,96751.84
2022-09-20T09:28:46.536Z,96752.94
2022-09-20T09:31:22.199Z,96756.06
2022-09-20T09:33:49.984Z,96758.09
2022-09-20T09:36:22.544Z,96753.09
2022-09-20T09:38:51.122Z,96754.69
2022-09-20T09:41:26.341Z,96751.06
2022-09-20T09:44:01.643Z,96754.72
2022-09-20T09:46:33.319Z,96747.66
2022-09-20T09:49:12.658Z,96755.69
2022-09-20T09:51:43.412Z,96755.78
2022-09-20T09:54:19.666Z,96758.34
2022-09-20T09:57:00.802Z,96759.16
2022-09-20T09:59:47.711Z,96747.72
2022-09-20T10:02:30.255Z,96746.47
2022-09-20T10:05:03.072Z,96743.31
2022-09-20T10:07:39.143Z,96741.69
2022-09-20T10:10:13.331Z,96747.50
2022-09-20T10:12:52.726Z,96749.09
2022-09-20T10:15:34.212Z,96747.19
2022-09-20T10:18:17.139Z,96749.91
2022-09-20T10:20:55.786Z,96747.03
2022-09-20T10:24:04.287Z,96748.47
2022-09-20T10:27:11.071Z,96746.81
2022-09-20T10:29:52.981Z,96750.31
2022-09-20T10:32:41.863Z,96743.59
2022-09-20T10:35:20.747Z,96738.50
2022-09-20T10:38:14.098Z,96739.66
2022-09-20T10:41:09.746Z,96744.16
2022-09-20T10:43:54.377Z,96746.56
2022-09-20T10:46:33.201Z,96748.91
2022-09-20T10:49:15.051Z,96754.31
2022-09-20T10:51:54.856Z,96752.31
2022-09-20T10:54:33.828Z,96749.41
2022-09-20T10:57:20.687Z,96758.34
2022-09-20T10:59:57.392Z,96750.78
2022-09-20T11:02:40.313Z,96751.41
2022-09-20T11:05:24.306Z,96743.84
2022-09-20T11:08:01.165Z,96747.63
2022-09-20T11:10:36.140Z,96738.84
2022-09-20T11:13:09.969Z,96753.47
2022-09-20T11:15:43.392Z,96759.91
2022-09-20T11:18:20.932Z,96754.94
2022-09-20T11:20:57.770Z,96756.53
2022-09-20T11:23:32.382Z,96755.88
2022-09-20T11:26:05.886Z,96755.09
2022-09-20T11:28:39.253Z,96758.75
2022-09-20T11:31:12.871Z,96760.44
2022-09-20T11:33:45.851Z,96750.63
2022-09-20T11:36:21.198Z,96755.28
2022-09-20T11:38:54.124Z,96749.81
2022-09-20T11:41:27.097Z,96739.22
2022-09-20T11:43:58.368Z,96729.16
2022-09-20T11:46:31.012Z,96739.91
2022-09-20T11:49:03.011Z,96728.97
2022-09-20T11:51:57.000Z,96726.56
2022-09-20T11:54:57.025Z,96734.19
2022-09-20T11:57:25.534Z,96736.97
2022-09-20T11:59:56.627Z,96726.78
2022-09-20T12:02:33.291Z,96724.97
2022-09-20T12:05:01.976Z,96717.97
2022-09-20T12:07:36.195Z,96720.56
2022-09-20T12:10:09.283Z,96730.72
2022-09-20T12:12:41.489Z,96720.53
2022-09-20T12:15:25.079Z,96713.81
2022-09-20T12:18:37.356Z,96708.19
2022-09-20T12:21:08.256Z,96716.09
2022-09-20T12:23:48.768Z,96716.03
2022-09-20T12:26:38.511Z,96704.63
2022-09-20T12:29:54.180Z,96705.44
2022-09-20T12:32:48.387Z,96709.38
2022-09-20T12:35:55.836Z,96711.41
2022-09-20T12:38:40.257Z,96708.88
2022-09-20T12:41:15.050Z,96697.22
2022-09-20T12:44:00.418Z,96701.81
2022-09-20T12:46:34.494Z,96698.78
2022-09-20T12:49:36.454Z,96698.81
2022-09-20T12:52:24.411Z,96688.19
2022-09-20T12:54:55.649Z,96679.53
2022-09-20T12:57:33.059Z,96691.47
2022-09-20T13:00:03.007Z,96687.41
2022-09-20T13:03:01.841Z,96688.84
2022-09-20T13:05:38.035Z,96693.19
2022-09-20T13:08:25.867Z,96687.50
2022-09-20T13:11:01.615Z,96682.91
2022-09-20T13:13:34.408Z,96678.50
2022-09-20T13:16:06.016Z,96680.69
2022-09-20T13:18:37.736Z,96683.69
2022-09-20T13:21:09.405Z,96682.22
2022-09-20T13:23:50.182Z,96683.94
2022-09-20T13:26:23.987Z,96677.94
2022-09-20T13:28:55.039Z,96680.28
2022-09-20T13:31:28.834Z,96676.63
2022-09-20T13:34:12.980Z,96681.06
2022-09-20T13:36:42.752Z,96678.22
2022-09-20T13:39:10.580Z,96679.09
2022-09-20T13:41:38.734Z,96681.16
2022-09-20T13:44:07.376Z,96685.28
2022-09-20T13:46:35.280Z,96677.31
2022-09-20T13:49:17.485Z,96683.84
2022-09-20T13:51:46.559Z,96686.69
2022-09-20T13:54:35.238Z,96688.22
2022-09-20T13:57:05.047Z,96686.19
2022-09-20T13:59:36.323Z,96686.72
2022-09-20T14:02:04.597Z,96683.88
2022-09-20T14:04:33.050Z,96689.44
2022-09-20T14:07:08.275Z,96679.91
2022-09-20T14:09:39.354Z,96675.34
2022-09-20T14:12:08.150Z,96681.69
2022-09-20T14:14:36.727Z,96682.13
2022-09-20T14:17:08.704Z,96677.53
2022-09-20T14:19:41.577Z,96683.81
2022-09-20T14:22:18.618Z,96673.03
2022-09-20T14:24:59.454Z,96686.53
2022-09-20T14:27:27.459Z,96684.03
2022-09-20T14:29:56.255Z,96683.88
2022-09-20T14:32:37.240Z,96677.28
2022-09-20T14:35:09.192Z,96672.47
2022-09-20T14:37:44.743Z,96679.03
2022-09-20T14:40:24.970Z,96682.13
2022-09-20T14:42:56.685Z,96680.19
2022-09-20T14:45:28.341Z,96678.81
2022-09-20T14:47:59.892Z,96684.59
2022-09-20T14:50:30.543Z,96685.06
2022-09-20T14:53:26.569Z,96677.59
2022-09-20T14:56:09.551Z,96673.59
2022-09-20T14:59:05.614Z,96679.38
2022-09-20T15:01:34.570Z,96682.09
2022-09-20T15:04:09.554Z,96685.97
2022-09-20T15:06:38.953Z,96674.72
2022-09-20T15:09:08.102Z,96684.28
2022-09-20T15:11:35.771Z,96682.84
2022-09-20T15:14:03.496Z,96687.97
2022-09-20T15:16:31.426Z,96688.88
2022-09-20T15:18:59.159Z,96677.72
2022-09-20T15:21:27.129Z,96675.47
2022-09-20T15:23:54.977Z,96682.97
2022-09-20T15:26:24.125Z,96680.44
2022-09-20T15:28:51.856Z,96690.47
2022-09-20T15:31:20.000Z,96688.88
2022-09-20T15:33:47.772Z,96683.88
2022-09-20T15:36:15.488Z,96690.25
2022-09-20T15:38:43.357Z,96691.13
2022-09-20T15:41:11.109Z,96698.28
2022-09-20T15:43:43.210Z,96695.69
2022-09-20T15:46:19.510Z,96706.97
2022-09-20T15:48:47.896Z,96701.03
2022-09-20T15:51:16.149Z,96705.44
2022-09-20T15:53:45.904Z,96699.56
2022-09-20T15:56:18.244Z,96711.16
2022-09-20T15:58:48.801Z,96707.38
2022-09-20T16:01:17.773Z,96702.72
2022-09-20T16:03:46.728Z,96702.78
2022-09-20T16:06:14.837Z,96705.72
2022-09-20T16:08:44.114Z,96712.16
2022-09-20T16:11:21.750Z,96711.38
2022-09-20T16:13:55.299Z,96707.56
2022-09-20T16:16:23.118Z,96704.22
2022-09-20T16:19:08.376Z,96712.91
2022-09-20T16:21:39.146Z,96712.31
2022-09-20T16:24:07.848Z,96712.22
2022-09-20T16:26:36.859Z,96719.44
2022-09-20T16:29:07.308Z,96717.22
2022-09-20T16:31:39.867Z,96721.25
2022-09-20T16:34:12.934Z,96726.09
2022-09-20T16:36:43.202Z,96727.06
2022-09-20T16:39:12.306Z,96729.00
2022-09-20T16:41:40.559Z,96723.75
2022-09-20T16:44:10.427Z,96734.13
2022-09-20T16:46:38.327Z,96722.97
2022-09-20T16:49:07.493Z,96735.16
2022-09-20T16:51:37.583Z,96732.59
2022-09-20T16:54:06.798Z,96736.44
2022-09-20T16:56:36.174Z,96730.88
2022-09-20T16:59:07.045Z,96741.75
2022-09-20T17:01:37.740Z,96740.13
2022-09-20T17:04:06.828Z,96740.13
2022-09-20T17:06:36.273Z,96744.63
2022-09-20T17:09:06.071Z,96746.84
2022-09-20T17:11:36.790Z,96744.47
2022-09-20T17:14:05.157Z,96753.09
2022-09-20T17:16:34.939Z,96747.81
2022-09-20T17:19:07.368Z,96754.53
2022-09-20T17:21:36.957Z,96756.28
2022-09-20T17:24:07.393Z,96760.28
2022-09-20T17:26:38.300Z,96760.28
2022-09-20T17:29:09.415Z,96758.50
2022-09-20T17:31:39.387Z,96760.88
2022-09-20T17:34:10.153Z,96765.03
2022-09-20T17:36:40.349Z,96763.91
2022-09-20T17:39:10.786Z,96776.84
2022-09-20T17:41:39.576Z,96771.88
2022-09-20T17:44:09.733Z,96781.25
2022-09-20T17:46:39.245Z,96780.28
2022-09-20T17:49:10.190Z,96779.81
2022-09-20T17:51:40.856Z,96790.16
2022-09-20T17:54:12.738Z,96783.81
2022-09-20T17:56:42.619Z,96789.38
2022-09-20T17:59:11.565Z,96792.72
2022-09-20T18:01:40.562Z,96791.72
2022-09-20T18:04:12.178Z,96793.16
2022-09-20T18:06:42.135Z,96801.94
2022-09-20T18:09:11.194Z,96801.75
2022-09-20T18:11:40.787Z,96796.09
2022-09-20T18:14:10.408Z,96803.28
2022-09-20T18:16:39.297Z,96811.03
2022-09-20T18:19:10.070Z,96807.16
2022-09-20T18:21:40.912Z,96822.16
2022-09-20T18:24:10.633Z,96832.03
2022-09-20T18:26:39.577Z,96823.38
2022-09-20T18:29:09.505Z,96826.22
2022-09-20T18:31:39.111Z,96836.78
2022-09-20T18:34:11.046Z,96836.91
2022-09-20T18:36:40.430Z,96840.22
2022-09-20T18:39:08.780Z,96847.69
2022-09-20T18:41:38.377Z,96842.56
2022-09-20T18:44:08.150Z,96848.28
2022-09-20T18:46:38.777Z,96853.03
2022-09-20T18:49:10.573Z,96855.75
2022-09-20T18:51:40.127Z,96863.16
2022-09-20T18:54:10.110Z,96865.47
2022-09-20T18:56:39.601Z,96860.69
2022-09-20T18:59:09.681Z,96867.53
2022-09-20T19:02:01.254Z,96865.91
2022-09-20T19:04:56.138Z,96861.91
2022-09-20T19:07:32.860Z,96869.53
2022-09-20T19:10:08.762Z,96870.75
2022-09-20T19:12:42.602Z,96867.06
2022-09-20T19:15:22.790Z,96871.06
2022-09-20T19:18:07.215Z,96877.00
2022-09-20T19:20:44.893Z,96883.50
2022-09-20T19:23:35.454Z,96887.31
2022-09-20T19:26:09.021Z,96890.34
2022-09-20T19:28:37.315Z,96883.41
2022-09-20T19:31:05.661Z,96893.88
2022-09-20T19:33:33.855Z,96892.38
2022-09-20T19:36:04.334Z,96897.00
2022-09-20T19:38:43.312Z,96896.69
2022-09-20T19:41:27.389Z,96892.06
2022-09-20T19:44:21.897Z,96905.41
2022-09-20T19:47:02.033Z,96905.50
2022-09-20T19:49:48.525Z,96901.19
2022-09-20T19:52:22.701Z,96902.31
2022-09-20T19:54:51.402Z,96909.63
2022-09-20T19:57:25.147Z,96915.53
2022-09-20T19:59:53.394Z,96911.22
2022-09-20T20:02:21.455Z,96909.91
2022-09-20T20:04:49.640Z,96914.31
2022-09-20T20:07:29.986Z,96909.63
2022-09-20T20:10:09.150Z,96913.13
2022-09-20T20:12:42.457Z,96909.63
2022-09-20T20:15:21.466Z,96913.22
2022-09-20T20:17:58.919Z,96914.78
2022-09-20T20:20:36.001Z,96919.91
2022-09-20T20:23:28.727Z,96922.31
2022-09-20T20:26:03.088Z,96930.44
2022-09-20T20:28:31.506Z,96923.50
2022-09-20T20:31:00.789Z,96931.91
2022-09-20T20:33:29.633Z,96926.50
2022-09-20T20:35:58.527Z,96933.38
2022-09-20T20:38:28.951Z,96937.78
2022-09-20T20:41:04.454Z,96931.28
2022-09-20T20:43:33.247Z,96929.88
2022-09-20T20:46:01.076Z,96929.88
2022-09-20T20:48:30.233Z,96939.31
2022-09-20T20:51:02.591Z,96946.41
2022-09-20T20:53:33.436Z,96936.72
2022-09-20T20:56:07.282Z,96940.78
2022-09-20T20:58:36.288Z,96942.19
2022-09-20T21:01:09.133Z,96942.78
2022-09-20T21:03:37.214Z,96951.78
2022-09-20T21:06:05.629Z,96949.47
2022-09-20T21:08:35.908Z,96953.06
2022-09-20T21:11:06.266Z,96948.44
2022-09-20T21:13:35.245Z,96948.72
2022-09-20T21:16:05.076Z,96945.56
2022-09-20T21:18:33.656Z,96952.56
2022-09-20T21:21:02.487Z,96949.16
2022-09-20T21:23:33.704Z,96947.47
2022-09-20T21:26:07.222Z,96954.47
2022-09-20T21:28:36.800Z,96955.13
2022-09-20T21:31:06.341Z,96956.75
2022-09-20T21:33:35.048Z,96955.38
2022-09-20T21:36:03.780Z,96954.88
2022-09-20T21:38:33.790Z,96956.16
2022-09-20T21:41:08.823Z,96957.19
2022-09-20T21:43:37.106Z,96953.06
2022-09-20T21:46:05.092Z,96958.72
2022-09-20T21:48:33.601Z,96954.69
2022-09-20T21:51:03.257Z,96956.59
2022-09-20T21:53:31.018Z,96961.00
2022-09-20T21:55:59.567Z,96955.66
2022-09-20T21:58:29.173Z,96963.78
2022-09-20T22:00:58.745Z,96954.63
2022-09-20T22:03:29.068Z,96956.53
2022-09-20T22:05:56.819Z,96958.38
2022-09-20T22:08:24.574Z,96951.34
2022-09-20T22:10:59.259Z,96954.91
2022-09-20T22:13:28.389Z,96951.94
2022-09-20T22:16:04.097Z,96949.50
2022-09-20T22:18:34.976Z,96946.81
2022-09-20T22:21:04.577Z,96947.63
2022-09-20T22:23:32.336Z,96950.34
2022-09-20T22:26:01.338Z,96943.31
2022-09-20T22:28:30.562Z,96940.41
2022-09-20T22:31:03.919Z,96945.84
2022-09-20T22:33:32.697Z,96936.16
2022-09-20T22:36:01.252Z,96937.03
2022-09-20T22:38:32.560Z,96935.44
2022-09-20T22:41:00.651Z,96932.72
2022-09-20T22:43:30.134Z,96937.63
2022-09-20T22:46:03.197Z,96931.47
2022-09-20T22:48:31.662Z,96929.66
2022-09-20T22:51:00.765Z,96932.22
2022-09-20T22:53:30.044Z,96931.41
2022-09-20T22:56:08.626Z,96925.50
2022-09-20T22:58:39.247Z,96920.47
2022-09-20T23:01:09.336Z,96909.59
2022-09-20T23:03:37.689Z,96929.56
2022-09-20T23:06:11.849Z,96918.56
2022-09-20T23:08:39.838Z,96923.72
2022-09-20T23:11:08.063Z,96919.69
2022-09-20T23:13:37.191Z,96914.13
2022-09-20T23:16:12.583Z,96918.78
2022-09-20T23:18:40.670Z,96920.75
2022-09-20T23:21:08.705Z,96921.06
2022-09-20T23:23:36.601Z,96923.50
2022-09-20T23:26:08.630Z,96922.72
2022-09-20T23:28:39.458Z,96927.88
2022-09-20T23:31:08.896Z,96923.09
2022-09-20T23:33:37.267Z,96926.97
2022-09-20T23:36:07.598Z,96923.28
2022-09-20T23:38:35.564Z,96930.28
2022-09-20T23:41:04.730Z,96927.56
2022-09-20T23:43:33.004Z,96927.06
2022-09-20T23:46:02.561Z,96926.78
2022-09-20T23:48:30.694Z,96927.06
2022-09-20T23:50:58.535Z,96930.63
2022-09-20T23:53:26.412Z,96927.69
2022-09-20T23:55:54.133Z,96928.78
2022-09-20T23:58:21.907Z,96929.94
